createdAt,value
2022-12-08T00:00:10.273Z,94762.09
2022-12-08T00:02:54.850Z,94767.94
2022-12-08T00:05:55.547Z,94763.50
2022-12-08T00:08:56.361Z,94763.13
2022-12-08T00:11:40.450Z,94766.53
2022-12-08T00:14:26.679Z,94790.91
2022-12-08T00:17:11.591Z,94799.81
2022-12-08T00:19:56.127Z,94793.72
2022-12-08T00:22:39.311Z,94802.38
2022-12-08T00:25:22.335Z,94801.69
2022-12-08T00:28:05.695Z,94812.31
2022-12-08T00:30:48.782Z,94808.78
2022-12-08T00:33:33.023Z,94811.78
2022-12-08T00:36:17.792Z,94814.38
2022-12-08T00:39:01.222Z,94814.47
2022-12-08T00:42:10.111Z,94804.91
2022-12-08T00:44:53.243Z,94808.44
2022-12-08T00:47:36.356Z,94815.97
2022-12-08T00:50:19.579Z,94827.16
2022-12-08T00:53:09.764Z,94810.59
2022-12-08T00:55:56.467Z,94825.63
2022-12-08T00:58:39.960Z,94820.84
2022-12-08T01:02:13.807Z,94822.44
2022-12-08T01:08:52.638Z,94818.38
2022-12-08T01:11:36.661Z,94807.41
2022-12-08T01:14:19.737Z,94803.19
2022-12-08T01:17:02.874Z,94814.41
2022-12-08T01:19:46.491Z,94819.72
2022-12-08T01:22:29.885Z,94825.47
2022-12-08T01:25:15.161Z,94820.94
2022-12-08T01:27:58.277Z,94817.78
2022-12-08T01:30:42.338Z,94833.75
2022-12-08T01:33:26.163Z,94823.50
2022-12-08T01:36:10.527Z,94812.91
2022-12-08T01:38:54.984Z,94808.91
2022-12-08T01:41:40.382Z,94813.88
2022-12-08T01:44:55.056Z,94802.28
2022-12-08T01:47:42.637Z,94804.22
2022-12-08T01:50:26.807Z,94806.16
2022-12-08T01:53:13.655Z,94785.66
2022-12-08T01:56:00.660Z,94773.78
2022-12-08T01:58:47.928Z,94771.03
2022-12-08T02:01:31.130Z,94777.16
2022-12-08T02:04:14.281Z,94773.72
2022-12-08T02:06:57.736Z,94770.97
2022-12-08T02:09:42.196Z,94780.69
2022-12-08T02:12:26.321Z,94778.50
2022-12-08T02:15:12.963Z,94776.03
2022-12-08T02:18:08.689Z,94773.47
2022-12-08T02:20:58.873Z,94774.50
2022-12-08T02:23:53.747Z,94786.19
2022-12-08T02:27:04.967Z,94782.28
2022-12-08T02:30:19.848Z,94768.50
2022-12-08T02:33:50.385Z,94775.56
2022-12-08T02:36:44.413Z,94786.97
2022-12-08T02:39:36.286Z,94787.94
2022-12-08T02:42:28.939Z,94785.03
2022-12-08T02:45:15.998Z,94785.13
2022-12-08T02:47:59.997Z,94790.59
2022-12-08T02:50:43.631Z,94782.63
2022-12-08T02:53:31.655Z,94776.94
2022-12-08T02:56:30.201Z,94773.44
2022-12-08T02:59:24.019Z,94768.22
2022-12-08T03:02:43.562Z,94771.66
2022-12-08T03:05:40.787Z,94782.44
2022-12-08T03:08:31.124Z,94786.69
2022-12-08T03:11:20.466Z,94768.75
2022-12-08T03:14:06.553Z,94767.41
2022-12-08T03:16:54.171Z,94766.81
2022-12-08T03:19:40.947Z,94778.31
2022-12-08T03:22:28.604Z,94775.81
2022-12-08T03:25:17.600Z,94774.16
2022-12-08T03:28:01.641Z,94768.13
2022-12-08T03:30:50.214Z,94763.53
2022-12-08T03:33:37.032Z,94759.94
2022-12-08T03:36:21.182Z,94773.88
2022-12-08T03:39:05.049Z,94773.25
2022-12-08T03:41:49.620Z,94770.06
2022-12-08T03:44:32.790Z,94779.72
2022-12-08T03:47:15.981Z,94769.91
2022-12-08T03:49:59.023Z,94765.66
2022-12-08T03:52:42.628Z,94769.25
2022-12-08T03:55:25.755Z,94769.97
2022-12-08T03:58:10.670Z,94784.41
2022-12-08T04:00:53.780Z,94779.19
2022-12-08T04:03:36.909Z,94772.84
2022-12-08T04:06:21.232Z,94775.81
2022-12-08T04:09:04.453Z,94786.81
2022-12-08T04:11:47.781Z,94783.25
2022-12-08T04:14:32.268Z,94786.88
2022-12-08T04:17:15.365Z,94784.69
2022-12-08T04:19:58.506Z,94790.50
2022-12-08T04:22:41.648Z,94782.91
2022-12-08T04:25:24.922Z,94789.97
2022-12-08T04:28:08.268Z,94784.72
2022-12-08T04:30:52.817Z,94786.38
2022-12-08T04:33:36.370Z,94783.72
2022-12-08T04:36:19.676Z,94789.72
2022-12-08T04:39:03.627Z,94791.88
2022-12-08T04:41:46.631Z,94786.88
2022-12-08T04:44:29.714Z,94778.44
2022-12-08T04:47:14.393Z,94786.81
2022-12-08T04:49:57.856Z,94780.41
2022-12-08T04:52:41.369Z,94784.41
2022-12-08T04:55:24.482Z,94785.72
2022-12-08T04:58:07.574Z,94804.91
2022-12-08T05:00:50.822Z,94794.72
2022-12-08T05:03:35.242Z,94794.50
2022-12-08T05:06:18.358Z,94798.91
2022-12-08T05:09:01.705Z,94798.91
2022-12-08T05:11:48.840Z,94798.84
2022-12-08T05:14:32.520Z,94803.66
2022-12-08T05:17:15.643Z,94806.38
2022-12-08T05:20:00.143Z,94801.09
2022-12-08T05:22:43.334Z,94808.09
2022-12-08T05:25:26.383Z,94807.03
2022-12-08T05:28:39.472Z,94809.41
2022-12-08T05:31:14.348Z,94810.88
2022-12-08T05:34:02.773Z,94816.88
2022-12-08T05:36:48.274Z,94818.78
2022-12-08T05:39:31.319Z,94823.97
2022-12-08T05:42:14.468Z,94807.13
2022-12-08T05:44:58.142Z,94826.06
2022-12-08T05:47:41.258Z,94823.34
2022-12-08T05:50:24.343Z,94838.38
2022-12-08T05:53:09.236Z,94837.72
2022-12-08T05:55:52.554Z,94834.03
2022-12-08T05:58:35.890Z,94814.69
2022-12-08T06:01:24.164Z,94827.38
2022-12-08T06:04:07.273Z,94828.63
2022-12-08T06:06:51.034Z,94827.00
2022-12-08T06:09:35.528Z,94823.97
2022-12-08T06:12:18.666Z,94824.19
2022-12-08T06:15:01.672Z,94819.31
2022-12-08T06:17:44.752Z,94825.06
2022-12-08T06:20:27.874Z,94841.84
2022-12-08T06:23:11.329Z,94851.78
2022-12-08T06:25:56.943Z,94846.63
2022-12-08T06:28:40.934Z,94857.44
2022-12-08T06:31:25.911Z,94851.78
2022-12-08T06:34:09.021Z,94875.97
2022-12-08T06:36:52.110Z,94852.00
2022-12-08T06:39:35.252Z,94859.75
2022-12-08T06:42:37.266Z,94863.03
2022-12-08T06:45:20.534Z,94845.66
2022-12-08T06:48:04.415Z,94853.34
2022-12-08T06:50:47.565Z,94856.63
2022-12-08T06:53:30.883Z,94847.22
2022-12-08T06:56:16.022Z,94836.50
2022-12-08T06:59:00.661Z,94825.25
2022-12-08T07:01:43.933Z,94818.97
2022-12-08T07:04:27.206Z,94833.34
2022-12-08T07:07:11.275Z,94826.72
2022-12-08T07:09:54.415Z,94824.00
2022-12-08T07:12:38.128Z,94835.16
2022-12-08T07:15:22.885Z,94822.63
2022-12-08T07:18:06.274Z,94841.97
2022-12-08T07:20:49.375Z,94848.00
2022-12-08T07:23:33.026Z,94852.91
2022-12-08T07:26:17.711Z,94854.53
2022-12-08T07:29:01.936Z,94859.09
2022-12-08T07:31:46.460Z,94874.81
2022-12-08T07:34:29.472Z,94872.28
2022-12-08T07:37:12.698Z,94887.47
2022-12-08T07:39:55.860Z,94889.50
2022-12-08T07:42:39.136Z,94896.16
2022-12-08T07:45:25.655Z,94889.69
2022-12-08T07:48:14.352Z,94881.41
2022-12-08T07:51:01.831Z,94885.47
2022-12-08T07:53:53.132Z,94879.63
2022-12-08T07:56:36.818Z,94887.66
2022-12-08T07:59:20.322Z,94879.50
2022-12-08T08:02:22.803Z,94876.28
2022-12-08T08:05:09.009Z,94875.19
2022-12-08T08:07:52.234Z,94890.88
2022-12-08T08:10:35.468Z,94887.44
2022-12-08T08:13:19.189Z,94886.84
2022-12-08T08:16:04.969Z,94881.72
2022-12-08T08:18:49.428Z,94885.75
2022-12-08T08:21:45.383Z,94886.72
2022-12-08T08:24:28.863Z,94882.59
2022-12-08T08:27:12.733Z,94888.47
2022-12-08T08:29:55.842Z,94886.94
2022-12-08T08:32:38.947Z,94887.91
2022-12-08T08:35:22.518Z,94877.09
2022-12-08T08:38:09.334Z,94887.25
2022-12-08T08:40:53.031Z,94880.03
2022-12-08T08:43:38.694Z,94876.94
2022-12-08T08:46:22.493Z,94869.16
2022-12-08T08:49:05.678Z,94864.06
2022-12-08T08:51:49.104Z,94871.69
2022-12-08T08:54:34.319Z,94873.72
2022-12-08T08:57:23.670Z,94867.19
2022-12-08T09:00:10.823Z,94877.03
2022-12-08T09:02:53.998Z,94864.53
2022-12-08T09:05:39.605Z,94860.09
2022-12-08T09:08:22.802Z,94862.16
2022-12-08T09:11:09.673Z,94856.22
2022-12-08T09:13:54.725Z,94854.03
2022-12-08T09:16:42.373Z,94842.25
2022-12-08T09:19:25.850Z,94839.66
2022-12-08T09:22:09.031Z,94836.56
2022-12-08T09:24:54.402Z,94827.28
2022-12-08T09:27:41.568Z,94831.56
2022-12-08T09:30:24.711Z,94818.47
2022-12-08T09:33:08.158Z,94821.84
2022-12-08T09:35:51.512Z,94811.72
2022-12-08T09:38:34.668Z,94817.88
2022-12-08T09:41:29.330Z,94817.03
2022-12-08T09:44:39.864Z,94806.47
2022-12-08T09:47:29.494Z,94813.06
2022-12-08T09:50:23.884Z,94814.97
2022-12-08T09:53:13.698Z,94807.63
2022-12-08T09:55:59.767Z,94813.38
2022-12-08T09:58:52.738Z,94808.84
2022-12-08T10:01:41.963Z,94808.56
2022-12-08T10:04:29.047Z,94797.69
2022-12-08T10:07:18.707Z,94785.25
2022-12-08T10:10:07.466Z,94775.41
2022-12-08T10:12:56.517Z,94773.00
2022-12-08T10:15:48.608Z,94769.25
2022-12-08T10:18:35.801Z,94759.53
2022-12-08T10:21:22.994Z,94767.41
2022-12-08T10:24:15.256Z,94763.34
2022-12-08T10:26:58.653Z,94769.31
2022-12-08T10:29:42.292Z,94764.44
2022-12-08T10:32:35.472Z,94761.69
2022-12-08T10:35:22.537Z,94753.63
2022-12-08T10:38:06.598Z,94758.78
2022-12-08T10:40:52.270Z,94763.00
2022-12-08T10:43:38.037Z,94762.84
2022-12-08T10:46:25.925Z,94745.69
2022-12-08T10:49:13.520Z,94745.41
2022-12-08T10:51:58.688Z,94732.56
2022-12-08T10:54:44.192Z,94731.78
2022-12-08T10:57:27.596Z,94726.13
2022-12-08T11:00:17.127Z,94735.25
2022-12-08T11:03:02.797Z,94734.47
2022-12-08T11:05:46.148Z,94733.75
2022-12-08T11:08:31.556Z,94724.47
2022-12-08T11:11:15.226Z,94720.97
2022-12-08T11:13:58.584Z,94720.41
2022-12-08T11:16:43.952Z,94707.88
2022-12-08T11:19:28.991Z,94719.41
2022-12-08T11:22:23.094Z,94720.59
2022-12-08T11:25:21.027Z,94707.88
2022-12-08T11:28:04.379Z,94704.88
2022-12-08T11:30:54.518Z,94686.97
2022-12-08T11:33:37.603Z,94692.63
2022-12-08T11:36:23.630Z,94690.72
2022-12-08T11:39:07.144Z,94687.41
2022-12-08T11:41:55.194Z,94681.22
2022-12-08T11:44:46.115Z,94680.78
2022-12-08T11:47:36.370Z,94696.16
2022-12-08T11:50:25.815Z,94694.91
2022-12-08T11:53:18.778Z,94684.78
2022-12-08T11:56:08.505Z,94676.22
2022-12-08T11:58:57.134Z,94673.88
2022-12-08T12:01:42.725Z,94677.34
2022-12-08T12:04:31.256Z,94668.25
2022-12-08T12:07:47.546Z,94677.88
2022-12-08T12:10:56.180Z,94669.81
2022-12-08T12:14:06.756Z,94667.13
2022-12-08T12:17:03.511Z,94661.72
2022-12-08T12:19:49.969Z,94674.34
2022-12-08T12:22:38.871Z,94671.06
2022-12-08T12:25:25.222Z,94675.50
2022-12-08T12:28:10.655Z,94676.50
2022-12-08T12:31:02.553Z,94672.88
2022-12-08T12:33:48.326Z,94673.69
2022-12-08T12:36:51.309Z,94669.56
2022-12-08T12:39:47.363Z,94659.63
2022-12-08T12:42:43.787Z,94657.38
2022-12-08T12:45:31.802Z,94656.56
2022-12-08T12:48:24.260Z,94657.84
2022-12-08T12:51:37.267Z,94663.25
2022-12-08T12:54:24.510Z,94655.31
2022-12-08T12:57:26.188Z,94643.16
2022-12-08T13:00:18.790Z,94650.16
2022-12-08T13:03:02.221Z,94653.84
2022-12-08T13:05:52.286Z,94644.56
2022-12-08T13:08:35.421Z,94644.56
2022-12-08T13:11:18.982Z,94644.44
2022-12-08T13:14:04.032Z,94646.88
2022-12-08T13:16:53.652Z,94636.91
2022-12-08T13:19:39.930Z,94639.91
2022-12-08T13:22:50.251Z,94641.00
2022-12-08T13:25:48.258Z,94648.47
2022-12-08T13:28:34.783Z,94628.69
2022-12-08T13:31:38.396Z,94641.94
2022-12-08T13:34:34.648Z,94639.50
2022-12-08T13:37:26.473Z,94636.34
2022-12-08T13:40:18.082Z,94640.66
2022-12-08T13:43:11.363Z,94636.41
2022-12-08T13:46:52.911Z,94637.81
2022-12-08T13:56:43.404Z,94624.25
2022-12-08T13:58:28.215Z,94635.16
2022-12-08T14:01:16.566Z,94641.72
2022-12-08T14:07:05.341Z,94650.13
2022-12-08T14:09:48.958Z,94645.59
2022-12-08T14:12:33.551Z,94652.13
2022-12-08T14:15:17.595Z,94641.44
2022-12-08T14:18:00.860Z,94638.94
2022-12-08T14:21:18.916Z,94645.56
2022-12-08T14:23:47.089Z,94642.94
2022-12-08T14:26:36.139Z,94634.97
2022-12-08T14:29:39.242Z,94647.38
2022-12-08T14:32:29.165Z,94645.22
2022-12-08T14:35:23.980Z,94643.47
2022-12-08T14:38:13.842Z,94649.28
2022-12-08T14:41:05.546Z,94643.09
2022-12-08T14:43:59.776Z,94633.09
2022-12-08T14:47:05.798Z,94642.63
2022-12-08T14:49:49.791Z,94635.84
2022-12-08T14:52:33.326Z,94643.84
2022-12-08T14:55:19.633Z,94646.63
2022-12-08T14:58:03.003Z,94639.22
2022-12-08T15:00:47.894Z,94632.25
2022-12-08T15:03:35.119Z,94645.53
2022-12-08T15:06:22.834Z,94633.75
2022-12-08T15:09:18.643Z,94629.25
2022-12-08T15:12:03.854Z,94637.25
2022-12-08T15:14:57.056Z,94647.25
2022-12-08T15:17:44.542Z,94645.66
2022-12-08T15:20:35.489Z,94642.25
2022-12-08T15:23:26.190Z,94638.19
2022-12-08T15:26:09.856Z,94659.28
2022-12-08T15:28:53.560Z,94657.78
2022-12-08T15:31:36.737Z,94667.16
2022-12-08T15:34:20.256Z,94658.38
2022-12-08T15:37:05.905Z,94663.13
2022-12-08T15:39:49.493Z,94657.53
2022-12-08T15:42:32.597Z,94651.03
2022-12-08T15:45:16.861Z,94662.13
2022-12-08T15:48:00.702Z,94670.91
2022-12-08T15:50:44.108Z,94668.91
2022-12-08T15:53:28.899Z,94676.44
2022-12-08T15:56:29.167Z,94671.84
2022-12-08T15:59:17.139Z,94677.97
2022-12-08T16:02:00.273Z,94672.13
2022-12-08T16:05:25.657Z,94661.72
2022-12-08T16:07:56.056Z,94672.13
2022-12-08T16:11:28.849Z,94671.38
2022-12-08T16:14:03.145Z,94665.22
2022-12-08T16:16:59.310Z,94655.28
2022-12-08T16:19:43.436Z,94661.88
2022-12-08T16:25:52.719Z,94683.84
2022-12-08T16:31:39.564Z,94679.91
2022-12-08T16:34:22.985Z,94682.91
2022-12-08T16:37:06.135Z,94677.38
2022-12-08T16:39:50.809Z,94692.34
2022-12-08T16:42:43.552Z,94694.91
2022-12-08T16:45:29.979Z,94695.25
2022-12-08T16:48:16.083Z,94696.59
2022-12-08T16:50:59.271Z,94692.03
2022-12-08T16:53:42.610Z,94688.94
2022-12-08T16:56:32.233Z,94689.47
2022-12-08T16:59:16.724Z,94691.63
2022-12-08T17:02:01.347Z,94680.47
2022-12-08T17:04:46.206Z,94679.78
2022-12-08T17:07:29.409Z,94679.84
2022-12-08T17:10:15.155Z,94677.47
2022-12-08T17:12:58.823Z,94676.72
2022-12-08T17:15:42.337Z,94691.47
2022-12-08T17:18:27.140Z,94689.78
2022-12-08T17:21:12.850Z,94675.56
2022-12-08T17:23:56.286Z,94691.81
2022-12-08T17:26:39.486Z,94685.47
2022-12-08T17:29:22.800Z,94688.13
2022-12-08T17:32:07.040Z,94707.84
2022-12-08T17:34:52.378Z,94682.75
2022-12-08T17:37:36.525Z,94700.06
2022-12-08T17:40:19.917Z,94687.19
2022-12-08T17:43:03.730Z,94672.28
2022-12-08T17:45:48.543Z,94679.00
2022-12-08T17:48:34.822Z,94681.84
2022-12-08T17:51:19.333Z,94674.13
2022-12-08T17:54:02.552Z,94699.16
2022-12-08T17:56:45.694Z,94698.78
2022-12-08T17:59:30.866Z,94699.19
2022-12-08T18:02:15.120Z,94683.69
2022-12-08T18:04:59.033Z,94698.22
2022-12-08T18:07:44.699Z,94694.44
2022-12-08T18:10:28.235Z,94702.44
2022-12-08T18:13:13.217Z,94704.00
2022-12-08T18:15:56.304Z,94710.91
2022-12-08T18:18:39.648Z,94722.44
2022-12-08T18:21:23.767Z,94727.38
2022-12-08T18:24:10.113Z,94726.16
2022-12-08T18:26:53.418Z,94717.41
2022-12-08T18:29:36.726Z,94716.59
2022-12-08T18:32:23.909Z,94720.19
2022-12-08T18:35:08.083Z,94734.13
2022-12-08T18:37:51.176Z,94739.75
2022-12-08T18:40:35.845Z,94733.41
2022-12-08T18:43:19.017Z,94741.75
2022-12-08T18:46:03.502Z,94739.72
2022-12-08T18:48:49.020Z,94749.09
2022-12-08T18:51:32.113Z,94749.31
2022-12-08T18:54:15.776Z,94746.13
2022-12-08T18:57:00.251Z,94729.59
2022-12-08T18:59:43.441Z,94744.53
2022-12-08T19:02:26.725Z,94734.34
2022-12-08T19:05:12.426Z,94749.78
2022-12-08T19:07:58.537Z,94740.94
2022-12-08T19:10:42.093Z,94742.25
2022-12-08T19:13:28.057Z,94724.53
2022-12-08T19:16:11.336Z,94734.03
2022-12-08T19:18:54.552Z,94743.53
2022-12-08T19:21:44.504Z,94750.84
2022-12-08T19:24:29.450Z,94747.28
2022-12-08T19:27:13.002Z,94725.63
2022-12-08T19:29:57.998Z,94725.63
2022-12-08T19:32:41.436Z,94727.19
2022-12-08T19:35:24.707Z,94725.63
2022-12-08T19:38:07.968Z,94717.31
2022-12-08T19:41:08.761Z,94726.28
2022-12-08T19:44:09.315Z,94736.84
2022-12-08T19:46:53.968Z,94744.81
2022-12-08T19:49:37.335Z,94752.75
2022-12-08T19:52:20.930Z,94741.38
2022-12-08T19:55:04.665Z,94760.31
2022-12-08T19:57:47.962Z,94756.31
2022-12-08T20:00:32.962Z,94763.44
2022-12-08T20:03:21.593Z,94767.09
2022-12-08T20:06:05.872Z,94775.66
2022-12-08T20:08:50.712Z,94763.53
2022-12-08T20:11:34.366Z,94755.22
2022-12-08T20:14:18.183Z,94786.53
2022-12-08T20:17:01.542Z,94794.66
2022-12-08T20:19:46.715Z,94813.56
2022-12-08T20:22:29.995Z,94791.72
2022-12-08T20:25:13.524Z,94800.28
2022-12-08T20:27:56.905Z,94803.28
2022-12-08T20:30:41.914Z,94820.75
2022-12-08T20:33:25.220Z,94811.97
2022-12-08T20:36:16.474Z,94811.59
2022-12-08T20:38:59.869Z,94818.13
2022-12-08T20:41:44.295Z,94779.22
2022-12-08T20:44:29.466Z,94808.84
2022-12-08T20:47:13.332Z,94769.34
2022-12-08T20:49:56.826Z,94799.75
2022-12-08T20:52:41.501Z,94758.00
2022-12-08T20:55:24.746Z,94773.72
2022-12-08T20:58:08.250Z,94809.84
2022-12-08T21:00:51.852Z,94771.53
2022-12-08T21:03:35.316Z,94785.41
2022-12-08T21:06:22.794Z,94793.94
2022-12-08T21:09:07.446Z,94790.19
2022-12-08T21:11:51.296Z,94810.44
2022-12-08T21:14:34.616Z,94811.25
2022-12-08T21:17:17.901Z,94806.47
2022-12-08T21:20:01.427Z,94815.19
2022-12-08T21:22:44.962Z,94820.34
2022-12-08T21:25:29.546Z,94825.72
2022-12-08T21:28:13.264Z,94843.34
2022-12-08T21:30:57.915Z,94812.03
2022-12-08T21:33:41.515Z,94828.06
2022-12-08T21:36:25.078Z,94822.53
2022-12-08T21:39:12.841Z,94804.06
2022-12-08T21:42:15.225Z,94827.09
2022-12-08T21:44:58.532Z,94790.97
2022-12-08T21:47:42.210Z,94790.59
2022-12-08T21:50:26.009Z,94826.69
2022-12-08T21:53:09.413Z,94832.66
2022-12-08T21:55:52.626Z,94811.22
2022-12-08T21:58:37.315Z,94815.59
2022-12-08T22:01:20.958Z,94826.09
2022-12-08T22:04:04.575Z,94806.84
2022-12-08T22:06:48.101Z,94826.28
2022-12-08T22:09:31.581Z,94836.59
2022-12-08T22:12:16.865Z,94823.94
2022-12-08T22:15:03.268Z,94802.50
2022-12-08T22:17:46.577Z,94837.19
2022-12-08T22:20:29.784Z,94819.53
2022-12-08T22:23:12.979Z,94803.06
2022-12-08T22:25:59.280Z,94815.94
2022-12-08T22:28:46.448Z,94802.66
2022-12-08T22:31:30.966Z,94818.72
2022-12-08T22:34:15.023Z,94810.38
2022-12-08T22:36:58.184Z,94813.56
2022-12-08T22:39:41.211Z,94832.78
2022-12-08T22:42:24.272Z,94835.00
2022-12-08T22:45:08.526Z,94834.19
2022-12-08T22:47:52.976Z,94833.44
2022-12-08T22:50:37.770Z,94820.34
2022-12-08T22:53:20.875Z,94844.34
2022-12-08T22:56:05.847Z,94809.81
2022-12-08T22:58:49.225Z,94829.84
2022-12-08T23:01:34.142Z,94829.84
2022-12-08T23:04:19.094Z,94809.44
2022-12-08T23:07:02.690Z,94793.34
2022-12-08T23:09:46.353Z,94802.50
2022-12-08T23:12:29.685Z,94792.19
2022-12-08T23:15:13.004Z,94789.19
2022-12-08T23:17:56.479Z,94802.09
2022-12-08T23:20:41.453Z,94805.84
2022-12-08T23:23:24.931Z,94790.16
2022-12-08T23:26:19.538Z,94783.03
2022-12-08T23:29:03.312Z,94800.91
2022-12-08T23:31:46.508Z,94815.34
2022-12-08T23:34:30.253Z,94821.53
2022-12-08T23:37:14.996Z,94815.59
2022-12-08T23:39:58.758Z,94802.69
2022-12-08T23:42:42.040Z,94807.44
2022-12-08T23:45:25.381Z,94813.19
2022-12-08T23:48:08.533Z,94815.34
2022-12-08T23:50:52.054Z,94789.00
2022-12-08T23:53:36.831Z,94803.25
2022-12-08T23:56:23.165Z,94821.09
2022-12-08T23:59:09.138Z,94812.78
